Time;durP1;ratioP1;P1;durP2;ratioP2;P2;SDS_P1;SDS_P2;PMS_P1;PMS_P2;Temp;Humidity;BMP_temperature;BMP_pressure;BME280_temperature;BME280_humidity;BME280_pressure;Samples;Min_cycle;Max_cycle;Signal;HPM_P1;HPM_P2
2023/06/24 00:02:15;;;;;;;10.40;6.05;;;;;;;22.81;60.05;100045.41;5106274;28;20035;-17
2023/06/24 00:04:40;;;;;;;8.70;5.70;;;;;;;22.77;60.42;100049.81;5106223;28;20024;-17
2023/06/24 00:07:06;;;;;;;10.77;5.25;;;;;;;22.53;60.82;100051.91;5106140;28;20052;-18
2023/06/24 00:09:32;;;;;;;7.60;5.53;;;;;;;22.59;60.63;100053.41;5106331;28;20525;-17
2023/06/24 00:12:01;;;;;;;10.13;5.63;;;;;;;22.41;60.60;100045.03;5109092;28;20114;-17
2023/06/24 00:14:27;;;;;;;9.68;6.05;;;;;;;22.68;59.73;100032.59;5110108;28;20032;-17
2023/06/24 00:16:54;;;;;;;8.75;5.55;;;;;;;22.51;59.96;100040.53;5109818;28;20026;-18
2023/06/24 00:19:20;;;;;;;8.90;5.72;;;;;;;22.53;60.33;100041.81;5109930;28;20825;-17
2023/06/24 00:21:48;;;;;;;7.90;5.72;;;;;;;22.37;60.08;100049.47;5110037;28;20027;-17
2023/06/24 00:24:13;;;;;;;9.05;5.63;;;;;;;22.40;59.60;100024.41;5109978;28;20119;-17
2023/06/24 00:26:38;;;;;;;11.23;6.43;;;;;;;22.38;59.88;100040.19;5106018;28;20044;-17
2023/06/24 00:29:04;;;;;;;11.38;6.00;;;;;;;22.39;60.05;100041.81;5089429;28;20024;-17
2023/06/24 00:31:30;;;;;;;8.13;5.05;;;;;;;22.26;60.74;100042.56;5089400;28;20016;-23
2023/06/24 00:33:55;;;;;;;8.68;5.90;;;;;;;22.45;59.99;100045.22;5089399;28;20035;-17
2023/06/24 00:36:21;;;;;;;9.23;6.05;;;;;;;22.39;60.50;100036.38;5089497;28;20066;-17
2023/06/24 00:38:48;;;;;;;10.75;6.20;;;;;;;22.27;61.46;100044.19;5089206;28;20036;-17
2023/06/24 00:41:16;;;;;;;9.40;5.97;;;;;;;22.42;61.55;100041.22;5089068;28;20561;-20
2023/06/24 00:43:41;;;;;;;9.57;6.10;;;;;;;22.31;62.25;100033.53;5108962;28;20054;-17
2023/06/24 00:46:07;;;;;;;8.63;5.97;;;;;;;22.15;63.20;100032.94;5109281;28;20433;-17
2023/06/24 00:48:32;;;;;;;11.45;6.10;;;;;;;22.12;63.85;100041.69;5109462;28;20407;-17
2023/06/24 00:50:58;;;;;;;9.40;6.28;;;;;;;21.97;64.37;100034.59;5109515;28;20028;-16
2023/06/24 00:53:24;;;;;;;8.23;6.43;;;;;;;22.02;64.33;100035.31;5109105;28;20016;-17
2023/06/24 00:55:52;;;;;;;13.40;5.80;;;;;;;22.13;64.18;100040.59;5109332;28;20106;-17
2023/06/24 00:58:20;;;;;;;8.10;5.85;;;;;;;21.76;66.10;100034.09;5109260;28;20079;-17
2023/06/24 01:00:48;;;;;;;9.82;6.50;;;;;;;21.47;68.01;100045.91;5109072;28;20023;-18
2023/06/24 01:03:14;;;;;;;;;;;;;;;21.32;69.47;100041.47;5109504;28;20040;-17
2023/06/24 01:05:41;;;;;;;9.32;6.95;;;;;;;21.15;71.52;100044.66;5109002;28;19918;-16
2023/06/24 01:08:06;;;;;;;8.63;6.70;;;;;;;21.06;72.38;100040.97;5109277;28;20045;-17
2023/06/24 01:10:32;;;;;;;11.18;7.03;;;;;;;20.95;73.51;100042.19;5109285;28;20122;-17
2023/06/24 01:12:58;;;;;;;14.73;7.78;;;;;;;20.87;74.28;100036.28;5108990;28;20173;-17
2023/06/24 01:15:28;;;;;;;9.88;7.35;;;;;;;20.77;74.55;100039.13;5109022;28;20019;-17
2023/06/24 01:18:02;;;;;;;10.60;7.00;;;;;;;20.77;74.99;100030.97;5108918;28;20031;-17
2023/06/24 01:20:31;;;;;;;10.88;7.57;;;;;;;20.85;74.98;100038.47;5109136;28;20734;-17
2023/06/24 01:23:30;;;;;;;9.77;7.18;;;;;;;21.13;73.67;100033.28;5107877;28;20028;-17
2023/06/24 01:26:04;;;;;;;9.65;7.32;;;;;;;20.72;75.75;100039.19;5108309;28;20032;-17
2023/06/24 01:28:59;;;;;;;9.93;7.03;;;;;;;20.80;75.61;100040.44;5108851;28;20034;-16
2023/06/24 01:31:34;;;;;;;10.30;7.40;;;;;;;20.54;76.84;100034.47;5108395;28;20510;-16
2023/06/24 01:34:21;;;;;;;9.90;7.40;;;;;;;20.47;76.64;100037.47;5108727;28;20039;-18
2023/06/24 01:37:17;;;;;;;9.70;7.20;;;;;;;20.20;78.37;100038.00;5108657;28;20080;-16
2023/06/24 01:39:57;;;;;;;12.40;8.02;;;;;;;20.19;78.94;100037.19;5099589;28;20039;-16
2023/06/24 01:42:23;;;;;;;13.00;7.32;;;;;;;20.16;79.31;100036.94;5108195;28;20047;-17
2023/06/24 01:44:50;;;;;;;10.80;7.63;;;;;;;20.16;79.43;100034.25;5108253;28;20032;-17
2023/06/24 01:47:28;;;;;;;9.50;7.97;;;;;;;20.04;79.96;100027.31;5108311;28;20031;-17
2023/06/24 01:50:00;;;;;;;10.95;7.85;;;;;;;20.19;79.55;100030.97;5108204;28;20108;-17
2023/06/24 01:52:29;;;;;;;11.48;7.80;;;;;;;20.25;79.48;100024.44;5108169;28;20065;-17
2023/06/24 01:54:55;;;;;;;9.77;7.70;;;;;;;20.18;79.91;100029.34;5107920;28;20141;-15
2023/06/24 01:57:23;;;;;;;12.02;8.00;;;;;;;20.15;79.91;100030.72;5108188;28;20024;-17
2023/06/24 01:59:50;;;;;;;11.43;7.70;;;;;;;20.11;80.15;100021.56;5107605;28;20472;-17
2023/06/24 02:02:20;;;;;;;9.88;7.93;;;;;;;20.47;78.30;100016.63;5107997;28;20036;-16
2023/06/24 02:04:45;;;;;;;11.75;8.30;;;;;;;20.38;78.90;100029.16;5107776;28;20030;-17
2023/06/24 02:07:13;;;;;;;9.80;7.53;;;;;;;20.26;79.39;100028.75;5107741;28;20031;-16
2023/06/24 02:09:40;;;;;;;9.98;7.22;;;;;;;20.32;79.48;100033.03;5107796;28;20031;-17
2023/06/24 02:12:09;;;;;;;10.65;7.70;;;;;;;20.14;80.43;100033.72;5107524;28;20024;-17
2023/06/24 02:14:36;;;;;;;10.52;7.38;;;;;;;19.97;81.60;100043.03;5107719;28;20038;-17
2023/06/24 02:17:04;;;;;;;9.90;7.38;;;;;;;20.20;80.10;100038.81;5107866;28;20028;-16
2023/06/24 02:19:30;;;;;;;;;;;;;;;19.97;81.23;100034.94;5108370;28;20031;-17
2023/06/24 02:22:01;;;;;;;9.68;7.32;;;;;;;20.06;81.56;100046.78;5107367;28;19922;-16
2023/06/24 02:24:28;;;;;;;11.30;8.02;;;;;;;20.11;81.19;100045.13;5107534;28;20503;-16
2023/06/24 02:26:56;;;;;;;11.50;8.10;;;;;;;19.98;81.80;100069.03;5107266;28;20151;-17
2023/06/24 02:29:23;;;;;;;10.90;7.57;;;;;;;20.53;78.33;100059.91;5107420;28;20110;-16
2023/06/24 02:31:48;;;;;;;11.85;8.05;;;;;;;20.46;78.07;100063.78;5107345;28;20032;-16
2023/06/24 02:34:14;;;;;;;11.07;7.63;;;;;;;20.44;77.80;100057.03;5107154;28;20084;-16
2023/06/24 02:36:39;;;;;;;11.02;8.48;;;;;;;20.52;77.82;100080.00;5107001;28;20046;-17
2023/06/24 02:39:05;;;;;;;12.23;9.25;;;;;;;20.76;76.83;100066.50;5107257;28;20022;-17
2023/06/24 02:41:30;;;;;;;12.10;8.02;;;;;;;20.39;78.17;100079.56;5107094;28;20031;-16
2023/06/24 02:43:56;;;;;;;13.70;8.45;;;;;;;20.41;78.55;100088.22;5107042;28;20028;-16
2023/06/24 02:46:22;;;;;;;13.57;8.35;;;;;;;20.46;77.75;100084.63;5107000;28;20028;-17
2023/06/24 02:48:49;;;;;;;14.63;9.35;;;;;;;20.41;77.76;100093.63;5106921;28;20038;-17
2023/06/24 02:51:15;;;;;;;15.50;9.27;;;;;;;20.28;77.95;100083.44;5106966;28;20028;-17
2023/06/24 02:53:41;;;;;;;11.55;8.35;;;;;;;20.33;78.11;100096.94;5106473;28;20312;-17
2023/06/24 02:56:08;;;;;;;11.60;8.73;;;;;;;19.68;81.13;100086.25;5107074;28;20068;-17
2023/06/24 02:58:38;;;;;;;14.55;8.88;;;;;;;19.72;82.29;100081.13;5106852;28;20545;-22
2023/06/24 03:01:06;;;;;;;14.05;8.52;;;;;;;19.79;81.84;100097.84;5107216;28;20032;-16
2023/06/24 03:03:32;;;;;;;12.38;8.18;;;;;;;20.23;79.55;100097.03;5106554;28;20114;-18
2023/06/24 03:05:59;;;;;;;11.55;8.80;;;;;;;20.46;78.41;100111.72;5099693;28;20455;-16
2023/06/24 03:08:26;;;;;;;11.93;8.23;;;;;;;20.59;77.59;100107.56;5086458;28;20190;-17
2023/06/24 03:10:54;;;;;;;12.88;8.80;;;;;;;20.27;79.31;100108.91;5086287;28;20111;-16
2023/06/24 03:13:20;;;;;;;12.88;8.48;;;;;;;20.29;78.69;100112.13;5086220;28;20030;-16
2023/06/24 03:15:45;;;;;;;12.30;8.50;;;;;;;20.69;77.00;100120.22;5086107;28;20024;-17
2023/06/24 03:18:11;;;;;;;13.40;9.77;;;;;;;20.21;78.80;100104.63;5086247;28;20391;-17
2023/06/24 03:20:38;;;;;;;14.18;9.50;;;;;;;20.28;78.78;100118.63;5086324;28;20016;-17
2023/06/24 03:23:06;;;;;;;10.88;8.90;;;;;;;20.17;79.85;100122.50;5086299;28;20021;-20
2023/06/24 03:25:32;;;;;;;13.52;8.68;;;;;;;20.10;80.84;100119.31;5086306;28;20515;-17
2023/06/24 03:27:57;;;;;;;12.48;8.75;;;;;;;19.99;80.88;100119.38;5086261;28;20112;-16
2023/06/24 03:30:22;;;;;;;11.07;8.68;;;;;;;19.86;82.12;100111.88;5086186;28;20818;-17
2023/06/24 03:32:48;;;;;;;12.25;8.68;;;;;;;19.83;82.31;100104.31;5086224;28;20043;-17
2023/06/24 03:35:14;;;;;;;12.35;8.98;;;;;;;19.75;82.63;100108.41;5086273;28;20020;-17
2023/06/24 03:37:39;;;;;;;15.63;9.45;;;;;;;19.99;82.08;100107.75;5086264;28;20418;-17
2023/06/24 03:40:06;;;;;;;12.18;8.90;;;;;;;20.17;80.89;100107.06;5086170;28;20035;-23
2023/06/24 03:42:31;;;;;;;19.25;9.55;;;;;;;20.58;78.50;100108.66;5102799;28;20131;-17
2023/06/24 03:44:56;;;;;;;14.88;9.02;;;;;;;20.68;77.89;100114.00;5106595;28;20035;-17
2023/06/24 03:47:22;;;;;;;13.43;8.95;;;;;;;20.62;77.41;100109.72;5109820;28;20463;-17
2023/06/24 03:49:47;;;;;;;13.57;9.38;;;;;;;20.81;76.69;100126.88;5110438;28;20019;-18
2023/06/24 03:52:13;;;;;;;13.90;9.15;;;;;;;20.40;78.60;100135.31;5110559;28;20841;-17
2023/06/24 03:54:39;;;;;;;15.35;9.25;;;;;;;20.17;80.79;100125.22;5110244;28;20023;-17
2023/06/24 03:57:07;;;;;;;12.43;8.70;;;;;;;20.12;81.72;100114.41;5110368;28;20042;-21
2023/06/24 03:59:32;;;;;;;13.07;8.73;;;;;;;19.92;81.99;100113.47;5110475;28;20119;-18
2023/06/24 04:01:58;;;;;;;13.73;9.48;;;;;;;19.94;82.51;100107.75;5110199;28;20034;-17
2023/06/24 04:04:23;;;;;;;13.65;10.50;;;;;;;19.85;83.66;100102.94;5110175;28;20027;-17
2023/06/24 04:06:49;;;;;;;11.85;9.30;;;;;;;19.99;83.76;100107.75;5109999;28;20028;-16
2023/06/24 04:09:14;;;;;;;13.25;9.20;;;;;;;20.14;83.34;100098.69;5109944;28;20031;-17
2023/06/24 04:11:39;;;;;;;17.63;8.77;;;;;;;20.22;82.56;100112.44;5110087;28;20479;-17
2023/06/24 04:14:06;;;;;;;11.75;8.93;;;;;;;20.44;81.88;100114.72;5109979;28;20448;-20
2023/06/24 04:16:32;;;;;;;16.27;9.95;;;;;;;20.63;80.89;100114.03;5109988;28;20047;-16
2023/06/24 04:18:58;;;;;;;11.65;9.20;;;;;;;20.71;80.61;100118.84;5110038;28;20781;-17
2023/06/24 04:21:23;;;;;;;16.30;9.07;;;;;;;20.68;80.92;100114.00;5109980;28;20115;-17
2023/06/24 04:23:49;;;;;;;11.65;9.20;;;;;;;20.64;81.53;100123.81;5109854;28;20024;-16
2023/06/24 04:26:14;;;;;;;11.45;9.35;;;;;;;20.77;81.12;100123.13;5109408;28;20032;-17
2023/06/24 04:28:40;;;;;;;13.40;9.50;;;;;;;20.78;80.76;100121.22;5109542;28;20406;-17
2023/06/24 04:31:05;;;;;;;12.82;9.27;;;;;;;20.64;81.23;100123.81;5109557;28;20119;-19
2023/06/24 04:33:31;;;;;;;12.32;8.80;;;;;;;20.97;79.86;100121.31;5109855;28;20085;-17
2023/06/24 04:35:56;;;;;;;12.57;9.40;;;;;;;21.11;79.03;100113.31;5109089;28;20034;-17
2023/06/24 04:38:22;;;;;;;14.23;9.55;;;;;;;21.47;77.64;100124.56;5108967;28;20022;-17
2023/06/24 04:40:48;;;;;;;12.57;9.10;;;;;;;21.46;78.12;100122.97;5109478;28;20031;-17
2023/06/24 04:43:14;;;;;;;11.98;9.38;;;;;;;21.61;76.51;100120.06;5108878;28;20516;-18
2023/06/24 04:45:39;;;;;;;12.07;8.35;;;;;;;21.75;76.27;100127.50;5108969;28;20050;-17
2023/06/24 04:48:05;;;;;;;11.55;8.93;;;;;;;21.74;75.84;100128.56;5109615;28;20704;-16
2023/06/24 04:50:30;;;;;;;11.85;9.15;;;;;;;21.74;75.78;100123.16;5109228;28;20027;-17
2023/06/24 04:52:58;;;;;;;12.75;8.82;;;;;;;21.90;75.64;100121.84;5109295;28;20827;-17
2023/06/24 04:55:24;;;;;;;13.95;10.35;;;;;;;22.03;75.14;100121.13;5109346;28;20204;-17
2023/06/24 04:57:49;;;;;;;10.82;9.18;;;;;;;22.04;74.40;100122.72;5107901;28;20747;-17
2023/06/24 05:00:15;;;;;;;12.63;9.20;;;;;;;21.89;75.65;100114.81;5109038;28;20019;-17
2023/06/24 05:02:41;;;;;;;17.85;10.80;;;;;;;22.29;74.28;100126.19;5109149;28;20026;-17
2023/06/24 05:05:07;;;;;;;16.15;9.93;;;;;;;22.52;72.90;100131.84;5109112;28;20031;-20
2023/06/24 05:07:32;;;;;;;14.45;9.88;;;;;;;22.43;71.96;100129.78;5108808;28;20032;-17
2023/06/24 05:09:57;;;;;;;12.43;8.95;;;;;;;22.53;71.79;100142.38;5108886;28;20011;-18
2023/06/24 05:12:23;;;;;;;14.13;8.63;;;;;;;22.87;70.42;100144.00;5108826;28;20012;-17
2023/06/24 05:14:52;;;;;;;12.93;9.52;;;;;;;22.73;70.98;100137.72;5109012;28;20016;-17
2023/06/24 05:17:18;;;;;;;13.48;8.93;;;;;;;23.03;69.22;100145.38;5108861;28;20036;-17
2023/06/24 05:19:44;;;;;;;12.88;9.73;;;;;;;22.87;69.65;100135.84;5108667;28;20020;-17
2023/06/24 05:22:09;;;;;;;14.02;10.10;;;;;;;22.99;71.06;100140.81;5108514;28;20034;-17
2023/06/24 05:24:35;;;;;;;15.55;10.55;;;;;;;23.12;69.69;100129.16;5108752;28;20024;-18
2023/06/24 05:27:05;;;;;;;13.75;9.65;;;;;;;23.14;68.77;100131.56;5108768;28;20028;-17
2023/06/24 05:29:32;;;;;;;18.50;9.88;;;;;;;23.57;68.16;100140.22;5108347;28;20049;-17
2023/06/24 05:31:58;;;;;;;12.00;9.35;;;;;;;23.65;65.25;100130.53;5108519;28;20039;-17
2023/06/24 05:34:23;;;;;;;12.77;8.82;;;;;;;23.66;65.09;100138.41;5107981;28;20066;-18
2023/06/24 05:36:49;;;;;;;12.95;8.95;;;;;;;23.87;63.74;100148.91;5108302;28;20115;-17
2023/06/24 05:39:14;;;;;;;15.80;8.88;;;;;;;23.88;64.60;100145.03;5107875;28;20404;-17
2023/06/24 05:41:40;;;;;;;12.57;8.68;;;;;;;23.67;64.50;100156.34;5107656;28;20023;-17
2023/06/24 05:44:12;;;;;;;12.38;8.63;;;;;;;23.85;63.37;100134.78;5107727;28;20147;-16
2023/06/24 05:46:37;;;;;;;13.80;8.50;;;;;;;23.82;63.70;100136.22;5107569;28;20052;-17
2023/06/24 05:49:03;;;;;;;11.10;7.97;;;;;;;24.09;61.80;100155.47;5107575;28;20096;-17
2023/06/24 05:51:29;;;;;;;15.93;8.93;;;;;;;24.03;61.11;100158.34;5106398;28;20185;-17
2023/06/24 05:53:54;;;;;;;11.65;8.23;;;;;;;24.03;63.97;100158.34;5105804;28;20070;-17
2023/06/24 05:56:22;;;;;;;12.02;8.02;;;;;;;24.40;60.28;100161.84;5106638;28;20019;-18
2023/06/24 05:58:50;;;;;;;9.27;7.50;;;;;;;24.69;60.29;100166.09;5107760;28;20120;-18
2023/06/24 06:01:16;;;;;;;11.57;8.00;;;;;;;24.36;59.92;100171.75;5107963;28;20402;-16
2023/06/24 06:03:41;;;;;;;9.43;7.45;;;;;;;24.70;60.35;100164.94;5107897;28;20487;-18
2023/06/24 06:06:07;;;;;;;11.82;7.72;;;;;;;24.84;59.23;100171.13;5108043;28;20577;-17
2023/06/24 06:08:33;;;;;;;10.85;7.60;;;;;;;24.73;59.10;100180.72;5107565;28;20069;-17
2023/06/24 06:10:58;;;;;;;9.95;7.50;;;;;;;24.72;58.23;100192.72;5102141;28;20069;-17
2023/06/24 06:13:24;;;;;;;9.35;7.22;;;;;;;24.82;56.94;100178.81;5107721;28;20028;-18
2023/06/24 06:15:49;;;;;;;13.82;7.50;;;;;;;25.07;58.71;100182.03;5107519;28;20029;-17
2023/06/24 06:18:15;;;;;;;13.90;7.85;;;;;;;25.22;57.06;100178.91;5107610;28;20020;-17
2023/06/24 06:20:40;;;;;;;11.20;7.10;;;;;;;25.31;56.79;100186.34;5107767;28;20028;-22
2023/06/24 06:23:06;;;;;;;10.75;7.78;;;;;;;25.14;56.30;100181.59;5108039;28;20020;-17
2023/06/24 06:25:32;;;;;;;15.27;8.07;;;;;;;25.34;57.06;100172.06;5107055;28;20066;-18
2023/06/24 06:27:58;;;;;;;13.50;8.52;;;;;;;25.54;56.63;100171.50;5105782;28;20091;-18
2023/06/24 06:30:25;;;;;;;17.10;9.00;;;;;;;25.50;56.09;100165.06;5107484;28;20016;-17
2023/06/24 06:32:51;;;;;;;;;;;;;;;25.75;55.64;100171.72;5107901;28;20020;-17
2023/06/24 06:35:16;;;;;;;10.95;7.75;;;;;;;25.80;54.94;100173.47;5107039;28;19918;-17
2023/06/24 06:37:42;;;;;;;17.33;8.60;;;;;;;25.59;55.57;100160.41;5107124;28;20030;-17
2023/06/24 06:40:07;;;;;;;12.27;7.95;;;;;;;25.52;54.88;100176.47;5107554;28;20026;-18
2023/06/24 06:42:33;;;;;;;11.05;7.70;;;;;;;25.82;54.53;100165.78;5107278;28;20043;-19
2023/06/24 06:44:58;;;;;;;9.50;7.35;;;;;;;25.85;53.97;100157.75;5107357;28;20312;-16
2023/06/24 06:47:24;;;;;;;10.48;8.00;;;;;;;26.11;52.96;100170.66;5107102;28;20034;-17
2023/06/24 06:49:50;;;;;;;11.13;7.53;;;;;;;26.22;53.64;100157.50;5088794;28;20051;-17
2023/06/24 06:52:16;;;;;;;12.15;8.10;;;;;;;26.00;54.48;100150.25;5107110;28;20028;-18
2023/06/24 06:54:41;;;;;;;11.07;7.90;;;;;;;26.13;54.67;100154.72;5106867;28;20027;-18
2023/06/24 06:57:07;;;;;;;10.85;7.93;;;;;;;26.20;54.12;100152.34;5107311;28;20445;-17
2023/06/24 06:59:32;;;;;;;11.32;8.02;;;;;;;26.06;55.22;100138.81;5106897;28;20081;-17
2023/06/24 07:01:58;;;;;;;11.05;7.93;;;;;;;26.18;54.69;100142.84;5107088;28;20052;-17
2023/06/24 07:04:24;;;;;;;10.60;7.57;;;;;;;26.33;55.03;100136.88;5088590;28;20510;-18
2023/06/24 07:06:49;;;;;;;13.18;7.80;;;;;;;26.63;54.04;100147.97;5106994;28;20563;-16
2023/06/24 07:09:15;;;;;;;13.45;8.85;;;;;;;26.97;52.65;100138.06;5106942;28;20035;-17
2023/06/24 07:11:41;;;;;;;12.55;8.43;;;;;;;27.01;53.48;100144.47;5106853;28;20015;-20
2023/06/24 07:14:06;;;;;;;12.52;7.80;;;;;;;26.41;52.67;100144.28;5107152;28;20035;-17
2023/06/24 07:16:32;;;;;;;12.35;7.72;;;;;;;26.66;53.34;100144.59;5106617;28;20028;-17
2023/06/24 07:18:57;;;;;;;11.20;7.97;;;;;;;26.90;50.89;100155.00;5104897;28;20024;-17
2023/06/24 07:21:23;;;;;;;11.35;8.38;;;;;;;26.90;51.63;100143.25;5104964;28;20031;-17
2023/06/24 07:23:48;;;;;;;13.80;8.65;;;;;;;27.02;53.22;100129.69;5106773;28;20080;-20
2023/06/24 07:26:14;;;;;;;11.52;7.65;;;;;;;27.29;52.33;100144.88;5105690;28;20056;-17
2023/06/24 07:28:39;;;;;;;11.27;7.40;;;;;;;27.75;49.92;100151.41;5106710;28;20712;-17
2023/06/24 07:31:05;;;;;;;10.23;8.32;;;;;;;28.10;50.03;100144.91;5106761;28;20024;-17
2023/06/24 07:33:30;;;;;;;11.82;8.20;;;;;;;28.17;48.76;100128.69;5106426;28;20023;-17
2023/06/24 07:35:56;;;;;;;11.05;7.85;;;;;;;27.95;49.77;100136.16;5106328;28;20020;-17
2023/06/24 07:38:22;;;;;;;10.55;7.50;;;;;;;28.10;49.08;100122.97;5105707;28;20338;-17
2023/06/24 07:40:47;;;;;;;10.40;7.47;;;;;;;28.19;47.67;100126.44;5105763;28;20050;-17
2023/06/24 07:43:13;;;;;;;11.20;8.23;;;;;;;28.31;47.18;100123.72;5105939;28;20051;-17
2023/06/24 07:45:38;;;;;;;21.35;8.43;;;;;;;28.67;48.96;100130.53;5106451;28;20719;-17
2023/06/24 07:48:04;;;;;;;13.52;8.00;;;;;;;28.42;48.86;100124.09;5106425;28;20383;-17
2023/06/24 07:50:31;;;;;;;10.63;7.50;;;;;;;28.04;48.30;100130.59;5106678;28;20023;-18
2023/06/24 07:52:57;;;;;;;11.32;7.72;;;;;;;28.65;48.38;100132.81;5106503;28;20060;-16
2023/06/24 07:55:22;;;;;;;12.23;8.13;;;;;;;28.34;48.43;100122.25;5106637;28;20825;-17
2023/06/24 07:57:48;;;;;;;10.05;7.85;;;;;;;28.52;48.59;100133.88;5106551;28;20074;-17
2023/06/24 08:00:15;;;;;;;9.82;7.82;;;;;;;28.48;48.30;100130.19;5106540;28;20382;-17
2023/06/24 08:02:41;;;;;;;11.70;8.30;;;;;;;28.82;50.32;100127.09;5106647;28;20564;-20
2023/06/24 08:05:09;;;;;;;10.38;8.10;;;;;;;28.93;47.96;100132.16;5106176;28;20028;-17
2023/06/24 08:07:34;;;;;;;9.32;7.68;;;;;;;29.09;46.86;100124.84;5104891;28;20106;-20
2023/06/24 08:10:00;;;;;;;11.23;8.65;;;;;;;29.35;46.85;100132.78;5105087;28;20753;-17
2023/06/24 08:12:25;;;;;;;9.13;7.90;;;;;;;28.94;48.35;100131.03;5105449;28;20043;-17
2023/06/24 08:14:51;;;;;;;10.43;7.93;;;;;;;29.24;47.17;100132.44;5105551;28;20486;-17
2023/06/24 08:17:16;;;;;;;10.15;7.53;;;;;;;29.30;46.24;100133.03;5106233;28;20024;-17
2023/06/24 08:19:41;;;;;;;9.68;7.70;;;;;;;29.53;45.23;100129.81;5105917;28;20114;-20
2023/06/24 08:22:07;;;;;;;10.20;7.55;;;;;;;29.72;44.54;100127.28;5106204;28;20593;-17
2023/06/24 08:24:32;;;;;;;11.25;7.80;;;;;;;29.94;43.10;100123.22;5106372;28;20043;-17
2023/06/24 08:26:58;;;;;;;11.35;8.10;;;;;;;29.76;45.14;100119.13;5106029;28;20038;-17
2023/06/24 08:29:23;;;;;;;10.40;7.78;;;;;;;29.74;44.62;100130.47;5106301;28;20035;-17
2023/06/24 08:31:48;;;;;;;10.23;7.55;;;;;;;29.86;45.67;100134.34;5107062;28;20019;-17
2023/06/24 08:34:14;;;;;;;13.82;8.90;;;;;;;29.82;45.46;100128.75;5109947;28;20118;-18
2023/06/24 08:36:39;;;;;;;10.57;7.75;;;;;;;29.96;45.24;100126.41;5109973;28;20020;-17
2023/06/24 08:39:05;;;;;;;10.75;7.75;;;;;;;30.08;44.06;100128.34;5106065;28;20475;-18
2023/06/24 08:41:30;;;;;;;9.55;7.68;;;;;;;30.37;44.55;100121.69;5109354;28;20032;-16
2023/06/24 08:43:56;;;;;;;11.30;8.40;;;;;;;30.09;44.83;100127.16;5107532;28;20150;-18
2023/06/24 08:46:24;;;;;;;10.40;8.57;;;;;;;30.46;45.36;100112.47;5108336;28;20095;-17
2023/06/24 08:48:58;;;;;;;10.40;7.60;;;;;;;30.43;43.94;100114.78;5109497;28;20366;-17
2023/06/24 08:51:29;;;;;;;10.25;7.60;;;;;;;30.40;44.17;100112.75;5109362;28;20019;-17
2023/06/24 08:53:55;;;;;;;10.63;7.63;;;;;;;30.51;44.38;100123.25;5109331;28;20023;-17
2023/06/24 08:56:21;;;;;;;10.07;7.93;;;;;;;30.59;43.17;100123.06;5109281;28;20020;-17
2023/06/24 08:58:46;;;;;;;11.18;7.95;;;;;;;30.88;43.78;100112.03;5109081;28;20027;-17
2023/06/24 09:01:12;;;;;;;9.43;8.43;;;;;;;31.01;43.03;100117.06;5109421;28;20051;-17
2023/06/24 09:03:38;;;;;;;10.00;7.57;;;;;;;31.29;42.59;100123.66;5109151;28;20027;-17
2023/06/24 09:06:03;;;;;;;10.63;7.60;;;;;;;31.17;41.57;100114.31;5108748;28;20024;-17
2023/06/24 09:08:29;;;;;;;9.32;8.00;;;;;;;31.03;42.80;100125.00;5108815;28;20030;-19
2023/06/24 09:10:55;;;;;;;11.13;8.50;;;;;;;31.14;42.43;100117.81;5109005;28;20154;-19
2023/06/24 09:13:22;;;;;;;9.77;8.32;;;;;;;31.34;41.17;100120.59;5108359;28;20046;-19
2023/06/24 09:15:48;;;;;;;9.63;7.35;;;;;;;31.07;41.79;100114.84;5108508;28;20035;-19
2023/06/24 09:18:16;;;;;;;10.10;8.20;;;;;;;31.34;42.77;100115.88;5107185;28;20020;-20
2023/06/24 09:20:45;;;;;;;10.50;7.95;;;;;;;31.32;41.07;100115.44;5104778;28;20550;-19
2023/06/24 09:23:11;;;;;;;9.73;7.80;;;;;;;31.63;40.69;100119.34;5094236;28;20102;-19
2023/06/24 09:25:36;;;;;;;9.13;7.60;;;;;;;31.66;41.11;100117.81;5108507;28;20114;-19
2023/06/24 09:28:02;;;;;;;9.13;7.30;;;;;;;31.95;39.65;100120.00;5108670;28;20028;-19
2023/06/24 09:30:28;;;;;;;8.95;7.05;;;;;;;32.03;39.53;100107.19;5104770;28;20023;-17
2023/06/24 09:32:55;;;;;;;8.88;7.50;;;;;;;31.83;39.94;100118.22;5106949;28;20027;-17
2023/06/24 09:35:22;;;;;;;8.25;7.32;;;;;;;31.60;40.42;100090.53;5108387;28;20503;-17
2023/06/24 09:37:50;;;;;;;;;;;;;;;31.90;38.72;100102.97;5109084;28;20043;-18
2023/06/24 09:40:16;;;;;;;9.55;7.55;;;;;;;31.94;39.02;100101.09;5108540;28;19911;-18
2023/06/24 09:42:56;;;;;;;9.90;7.28;;;;;;;32.24;38.58;100090.25;5105322;28;20044;-19
2023/06/24 09:45:25;;;;;;;11.10;7.47;;;;;;;32.15;37.68;100100.72;5106063;28;20032;-19
2023/06/24 09:47:52;;;;;;;12.00;7.70;;;;;;;32.07;39.29;100094.28;5108196;28;20028;-20
2023/06/24 09:50:18;;;;;;;11.73;7.40;;;;;;;32.23;37.71;100088.66;5108310;28;20054;-19
2023/06/24 09:52:45;;;;;;;8.63;7.35;;;;;;;32.47;35.93;100084.78;5107480;28;20418;-24
2023/06/24 09:55:13;;;;;;;10.00;7.80;;;;;;;32.72;36.75;100074.19;5108043;28;20012;-19
2023/06/24 09:57:43;;;;;;;8.48;7.07;;;;;;;32.35;37.27;100080.22;5107192;28;20023;-19
2023/06/24 10:00:10;;;;;;;8.85;7.28;;;;;;;32.69;36.68;100074.91;5107655;28;20054;-21
2023/06/24 10:02:36;;;;;;;10.13;7.50;;;;;;;33.12;37.65;100072.06;5107875;28;20028;-19
2023/06/24 10:05:02;;;;;;;9.00;6.70;;;;;;;33.10;36.01;100072.47;5107349;28;20114;-20
2023/06/24 10:07:28;;;;;;;8.88;6.72;;;;;;;33.15;35.53;100069.38;5088922;28;20160;-19
2023/06/24 10:09:54;;;;;;;9.03;7.13;;;;;;;33.28;35.40;100060.88;5107357;28;20051;-20
2023/06/24 10:12:20;;;;;;;9.60;7.18;;;;;;;33.39;35.21;100059.06;5107558;28;20011;-20
2023/06/24 10:14:45;;;;;;;8.40;7.25;;;;;;;33.22;34.89;100052.91;5106812;28;20054;-20
2023/06/24 10:17:11;;;;;;;7.97;6.80;;;;;;;33.70;34.59;100048.81;5106457;28;20382;-19
2023/06/24 10:19:39;;;;;;;8.15;7.35;;;;;;;33.79;35.11;100043.78;5106936;28;20024;-20
2023/06/24 10:22:08;;;;;;;8.73;7.38;;;;;;;33.47;35.29;100026.75;5099724;28;20038;-19
2023/06/24 10:24:35;;;;;;;10.63;7.78;;;;;;;33.54;34.98;100035.94;5087211;28;20028;-26
2023/06/24 10:27:06;;;;;;;9.02;7.32;;;;;;;33.54;35.31;100030.41;5104314;28;20028;-20
2023/06/24 10:29:36;;;;;;;9.68;7.43;;;;;;;33.74;34.89;100017.28;5107500;28;20031;-21
2023/06/24 10:32:04;;;;;;;9.95;7.20;;;;;;;33.19;35.03;100012.19;5107668;28;20114;-20
2023/06/24 10:34:44;;;;;;;10.10;7.28;;;;;;;33.70;34.65;100021.16;5107420;28;20027;-20
2023/06/24 10:37:19;;;;;;;8.15;7.10;;;;;;;34.48;33.13;100014.88;5107501;28;20024;-19
2023/06/24 10:39:52;;;;;;;10.18;7.30;;;;;;;34.09;34.32;100018.03;5107039;28;20027;-20
2023/06/24 10:42:26;;;;;;;9.13;7.63;;;;;;;33.88;35.21;100011.09;5106974;28;20122;-20
2023/06/24 10:44:54;;;;;;;9.13;7.35;;;;;;;34.35;34.28;100006.84;5107189;28;20099;-21
2023/06/24 10:47:21;;;;;;;9.88;6.78;;;;;;;34.54;32.79;100010.56;5107072;28;20030;-17
2023/06/24 10:49:46;;;;;;;8.55;6.57;;;;;;;34.52;31.58;100010.16;5107244;28;20032;-18
2023/06/24 10:52:12;;;;;;;7.70;6.40;;;;;;;34.57;31.53;100018.09;5107109;28;20023;-19
2023/06/24 10:54:39;;;;;;;9.93;6.82;;;;;;;34.93;31.32;100012.84;5107234;28;20024;-18
2023/06/24 10:57:06;;;;;;;9.93;7.45;;;;;;;34.73;32.78;100004.78;5101388;28;20066;-18
2023/06/24 10:59:35;;;;;;;9.60;7.32;;;;;;;35.10;32.10;100011.38;5089289;28;20111;-17
2023/06/24 11:02:01;;;;;;;11.02;7.80;;;;;;;34.62;33.12;99998.38;5106848;28;20047;-17
2023/06/24 11:04:26;;;;;;;9.25;8.00;;;;;;;34.73;32.81;99999.25;5106763;28;20063;-17
2023/06/24 11:07:02;;;;;;;8.20;7.28;;;;;;;34.84;31.64;99993.00;5106713;28;20039;-18
2023/06/24 11:09:27;;;;;;;7.53;6.72;;;;;;;34.93;31.47;99985.94;5106899;28;20047;-18
2023/06/24 11:11:53;;;;;;;8.63;7.55;;;;;;;35.29;31.01;99975.09;5106934;28;20019;-18
2023/06/24 11:14:22;;;;;;;10.65;7.03;;;;;;;35.59;30.51;99985.09;5106914;28;20031;-18
2023/06/24 11:16:47;;;;;;;9.20;7.00;;;;;;;35.62;31.03;99981.53;5106566;28;20115;-19
2023/06/24 11:19:13;;;;;;;7.55;6.70;;;;;;;35.40;30.20;99981.44;5107027;28;20840;-17
2023/06/24 11:21:38;;;;;;;9.35;6.32;;;;;;;35.08;30.42;99967.41;5106737;28;20092;-17